createdAt,value
2018-07-13T00:00:20.422Z,6.47
2018-07-13T00:02:47.985Z,9.27
2018-07-13T00:05:15.678Z,10.80
2018-07-13T00:07:44.143Z,8.90
2018-07-13T00:10:11.777Z,9.13
2018-07-13T00:12:40.797Z,8.30
2018-07-13T00:15:09.654Z,8.43
2018-07-13T00:17:37.344Z,10.60
2018-07-13T00:20:05.472Z,8.60
2018-07-13T00:22:33.151Z,9.63
2018-07-13T00:25:00.845Z,10.53
2018-07-13T00:27:28.497Z,9.57
2018-07-13T00:29:56.680Z,7.73
2018-07-13T00:32:24.243Z,7.03
2018-07-13T00:34:51.850Z,8.17
2018-07-13T00:37:19.876Z,7.17
2018-07-13T00:39:57.487Z,10.17
2018-07-13T00:42:28.106Z,12.10
2018-07-13T00:44:55.712Z,7.73
2018-07-13T00:47:23.289Z,10.73
2018-07-13T00:49:50.936Z,8.43
2018-07-13T00:52:18.693Z,9.03
2018-07-13T00:54:48.365Z,10.27
2018-07-13T00:57:15.941Z,9.57
2018-07-13T00:59:44.106Z,11.03
2018-07-13T01:02:11.737Z,8.87
2018-07-13T01:04:39.354Z,8.50
2018-07-13T01:07:07.267Z,11.63
2018-07-13T01:09:35.054Z,10.03
2018-07-13T01:12:02.798Z,11.43
2018-07-13T01:14:31.177Z,10.37
2018-07-13T01:16:58.917Z,8.73
2018-07-13T01:19:26.521Z,8.03
2018-07-13T01:21:54.120Z,6.80
2018-07-13T01:24:21.688Z,9.00
2018-07-13T01:26:50.587Z,8.77
2018-07-13T01:29:18.187Z,7.57
2018-07-13T01:31:45.818Z,8.03
2018-07-13T01:34:14.171Z,8.00
2018-07-13T01:36:42.061Z,7.90
2018-07-13T01:39:12.070Z,7.30
2018-07-13T01:41:39.958Z,6.43
2018-07-13T01:44:07.554Z,6.30
2018-07-13T01:46:35.158Z,9.13
2018-07-13T01:49:02.801Z,7.77
2018-07-13T01:51:33.194Z,7.43
2018-07-13T01:54:00.802Z,9.17
2018-07-13T01:56:28.726Z,8.87
2018-07-13T01:58:56.274Z,8.93
2018-07-13T02:01:23.856Z,9.53
2018-07-13T02:03:51.449Z,9.57
2018-07-13T02:06:19.030Z,7.10
2018-07-13T02:08:46.805Z,7.13
2018-07-13T02:11:14.385Z,12.50
2018-07-13T02:13:42.218Z,11.70
2018-07-13T02:16:10.110Z,7.43
2018-07-13T02:18:37.796Z,8.43
2018-07-13T02:21:05.617Z,9.27
2018-07-13T02:23:33.197Z,7.40
2018-07-13T02:26:00.777Z,7.87
2018-07-13T02:28:28.387Z,7.50
2018-07-13T02:30:55.987Z,10.87
2018-07-13T02:33:23.573Z,8.57
2018-07-13T02:35:51.185Z,8.63
2018-07-13T02:38:18.781Z,10.10
2018-07-13T02:40:46.345Z,9.30
2018-07-13T02:43:13.981Z,7.33
2018-07-13T02:45:42.074Z,13.00
2018-07-13T02:48:09.766Z,9.17
2018-07-13T02:50:37.753Z,12.03
2018-07-13T02:53:05.400Z,9.33
2018-07-13T02:55:32.974Z,9.90
2018-07-13T02:58:01.021Z,9.80
2018-07-13T03:00:28.643Z,9.70
2018-07-13T03:02:56.229Z,9.83
2018-07-13T03:05:23.837Z,10.97
2018-07-13T03:07:51.470Z,8.57
2018-07-13T03:10:19.164Z,12.03
2018-07-13T03:12:46.802Z,12.37
2018-07-13T03:15:14.358Z,7.80
2018-07-13T03:17:41.974Z,12.60
2018-07-13T03:20:09.566Z,12.00
2018-07-13T03:22:37.163Z,10.27
2018-07-13T03:25:04.948Z,9.97
2018-07-13T03:27:32.572Z,10.90
2018-07-13T03:30:00.172Z,10.77
2018-07-13T03:32:27.783Z,14.97
2018-07-13T03:34:55.349Z,13.30
2018-07-13T03:37:22.966Z,16.60
2018-07-13T03:39:50.558Z,10.10
2018-07-13T03:42:18.421Z,10.50
2018-07-13T03:44:46.018Z,15.37
2018-07-13T03:47:13.614Z,13.80
2018-07-13T03:49:41.214Z,12.60
2018-07-13T03:52:11.177Z,13.37
2018-07-13T03:54:38.774Z,11.70
2018-07-13T03:57:06.438Z,9.57
2018-07-13T03:59:34.017Z,12.63
2018-07-13T04:02:01.613Z,12.67
2018-07-13T04:04:29.299Z,15.60
2018-07-13T04:06:56.888Z,11.13
2018-07-13T04:09:24.612Z,11.57
2018-07-13T04:11:52.206Z,10.57
2018-07-13T04:14:19.959Z,12.33
2018-07-13T04:16:47.538Z,11.67
2018-07-13T04:19:15.157Z,13.20
2018-07-13T04:21:43.344Z,12.37
2018-07-13T04:24:11.043Z,14.17
2018-07-13T04:26:39.557Z,11.33
2018-07-13T04:29:07.261Z,11.33
2018-07-13T04:31:34.862Z,12.20
2018-07-13T04:34:02.627Z,12.20
2018-07-13T04:36:30.289Z,11.20
2018-07-13T04:38:57.869Z,12.10
2018-07-13T04:41:25.633Z,13.93
2018-07-13T04:43:53.263Z,12.47
2018-07-13T04:46:20.953Z,15.27
2018-07-13T04:48:48.642Z,11.37
2018-07-13T04:51:16.293Z,9.40
2018-07-13T04:53:44.295Z,8.93
2018-07-13T04:56:12.005Z,13.20
2018-07-13T04:58:39.749Z,15.43
2018-07-13T05:01:07.463Z,13.30
2018-07-13T05:03:35.179Z,12.13
2018-07-13T05:06:02.833Z,11.57
2018-07-13T05:08:30.608Z,11.03
2018-07-13T05:10:58.221Z,15.00
2018-07-13T05:13:25.857Z,12.73
2018-07-13T05:15:53.565Z,14.30
2018-07-13T05:18:21.206Z,14.70
2018-07-13T05:20:48.892Z,14.10
2018-07-13T05:23:16.581Z,13.07
2018-07-13T05:25:44.496Z,13.97
2018-07-13T05:28:12.299Z,15.60
2018-07-13T05:30:39.984Z,18.03
2018-07-13T05:33:07.710Z,15.87
2018-07-13T05:35:35.357Z,15.40
2018-07-13T05:38:04.869Z,17.63
2018-07-13T05:40:32.581Z,16.53
2018-07-13T05:43:00.252Z,18.13
2018-07-13T05:45:27.925Z,15.83
2018-07-13T05:47:55.579Z,15.60
2018-07-13T05:50:23.286Z,29.00
2018-07-13T05:52:51.154Z,65.70
2018-07-13T05:55:18.916Z,19.80
2018-07-13T05:57:47.909Z,16.87
2018-07-13T06:00:17.453Z,16.73
2018-07-13T06:02:46.643Z,19.33
2018-07-13T06:05:15.451Z,16.17
2018-07-13T06:07:43.530Z,17.90
2018-07-13T06:10:11.334Z,19.80
2018-07-13T06:12:38.988Z,58.83
2018-07-13T06:15:06.797Z,18.70
2018-07-13T06:17:34.996Z,20.23
2018-07-13T06:20:02.625Z,18.53
2018-07-13T06:22:30.210Z,11.67
2018-07-13T06:24:57.876Z,19.00
2018-07-13T06:27:25.440Z,14.30
2018-07-13T06:29:53.117Z,12.37
2018-07-13T06:32:20.953Z,19.27
2018-07-13T06:34:49.784Z,22.67
2018-07-13T06:37:17.391Z,15.87
2018-07-13T06:39:45.161Z,19.57
2018-07-13T06:42:12.815Z,21.27
2018-07-13T06:44:40.466Z,19.07
2018-07-13T06:47:08.052Z,18.63
2018-07-13T06:49:35.685Z,19.30
2018-07-13T06:52:03.375Z,16.87
2018-07-13T06:54:31.002Z,16.43
2018-07-13T06:56:58.605Z,20.07
2018-07-13T06:59:26.257Z,22.50
2018-07-13T07:01:54.038Z,18.93
2018-07-13T07:04:27.881Z,19.40
2018-07-13T07:06:55.993Z,17.97
2018-07-13T07:09:24.290Z,19.07
2018-07-13T07:12:37.745Z,35.83
2018-07-13T07:15:05.531Z,19.03
2018-07-13T07:17:33.131Z,22.30
2018-07-13T07:20:00.782Z,26.40
2018-07-13T07:22:28.370Z,19.47
2018-07-13T07:24:55.969Z,20.83
2018-07-13T07:27:23.685Z,19.23
2018-07-13T07:29:51.326Z,17.37
2018-07-13T07:32:18.989Z,23.03
2018-07-13T07:34:46.652Z,19.30
2018-07-13T07:37:14.307Z,18.93
2018-07-13T07:39:41.897Z,19.47
2018-07-13T07:42:09.917Z,21.40
2018-07-13T07:44:37.991Z,16.97
2018-07-13T07:47:05.610Z,21.97
2018-07-13T07:49:33.202Z,18.00
2018-07-13T07:52:01.518Z,18.50
2018-07-13T07:54:29.146Z,16.93
2018-07-13T07:56:56.896Z,16.70
2018-07-13T07:59:24.507Z,22.90
2018-07-13T08:01:52.711Z,19.57
2018-07-13T08:04:20.293Z,18.13
2018-07-13T08:06:48.231Z,17.93
2018-07-13T08:09:15.620Z,18.90
2018-07-13T08:11:43.657Z,15.97
2018-07-13T08:14:11.509Z,18.27
2018-07-13T08:16:38.994Z,12.60
2018-07-13T08:19:06.617Z,17.40
2018-07-13T08:21:39.430Z,17.70
2018-07-13T08:24:08.008Z,15.30
2018-07-13T08:26:36.247Z,17.50
2018-07-13T08:29:03.916Z,21.23
2018-07-13T08:31:31.632Z,17.30
2018-07-13T08:33:59.225Z,14.77
2018-07-13T08:36:26.955Z,15.27
2018-07-13T08:39:11.883Z,12.47
2018-07-13T08:41:39.616Z,16.97
2018-07-13T08:44:08.062Z,14.13
2018-07-13T08:46:35.869Z,20.40
2018-07-13T08:49:03.518Z,17.63
2018-07-13T08:51:31.190Z,17.77
2018-07-13T08:53:58.963Z,17.27
2018-07-13T08:56:26.646Z,14.60
2018-07-13T08:58:54.701Z,20.27
2018-07-13T09:01:22.465Z,18.57
2018-07-13T09:03:50.513Z,18.60
2018-07-13T09:06:18.196Z,14.20
2018-07-13T09:08:45.997Z,16.60
2018-07-13T09:11:13.566Z,15.83
2018-07-13T09:13:41.243Z,14.30
2018-07-13T09:16:08.846Z,15.63
2018-07-13T09:18:36.534Z,16.10
2018-07-13T09:21:04.208Z,15.23
2018-07-13T09:23:31.792Z,13.77
2018-07-13T09:25:59.335Z,16.47
2018-07-13T09:28:26.937Z,19.60
2018-07-13T09:30:54.686Z,16.47
2018-07-13T09:33:22.316Z,16.30
2018-07-13T09:35:50.436Z,15.77
2018-07-13T09:38:18.063Z,19.87
2018-07-13T09:40:46.274Z,17.20
2018-07-13T09:43:14.041Z,17.07
2018-07-13T09:45:41.696Z,13.60
2018-07-13T09:48:09.358Z,12.80
2018-07-13T09:50:38.322Z,13.87
2018-07-13T09:53:06.029Z,16.33
2018-07-13T09:55:33.627Z,14.83
2018-07-13T09:58:01.225Z,10.87
2018-07-13T10:01:31.538Z,12.97
2018-07-13T10:03:59.202Z,11.70
2018-07-13T10:06:26.783Z,15.17
2018-07-13T10:08:54.414Z,11.43
2018-07-13T10:11:21.993Z,12.27
2018-07-13T10:13:49.687Z,13.47
2018-07-13T10:16:17.330Z,9.87
2018-07-13T10:18:45.012Z,11.73
2018-07-13T10:21:12.666Z,12.27
2018-07-13T10:23:40.992Z,14.80
2018-07-13T10:26:11.899Z,13.07
2018-07-13T10:28:39.806Z,13.63
2018-07-13T10:31:08.317Z,12.43
2018-07-13T10:33:37.579Z,10.77
2018-07-13T10:36:06.864Z,11.13
2018-07-13T10:38:34.629Z,14.93
2018-07-13T10:41:02.242Z,12.53
2018-07-13T10:43:29.938Z,11.33
2018-07-13T10:45:57.649Z,9.30
2018-07-13T10:48:25.285Z,11.40
2018-07-13T10:50:52.825Z,7.17
2018-07-13T10:53:20.410Z,10.27
2018-07-13T10:55:48.932Z,8.83
2018-07-13T10:58:16.563Z,7.70
2018-07-13T11:00:44.210Z,8.70
2018-07-13T11:03:11.896Z,8.43
2018-07-13T11:05:39.450Z,9.17
2018-07-13T11:08:07.260Z,9.50
2018-07-13T11:10:34.765Z,10.03
2018-07-13T11:13:02.377Z,9.00
2018-07-13T11:15:29.962Z,9.00
2018-07-13T11:17:57.525Z,9.47
2018-07-13T11:20:25.114Z,9.60
2018-07-13T11:22:52.932Z,14.13
2018-07-13T11:25:20.493Z,11.90
2018-07-13T11:27:48.769Z,11.30
2018-07-13T11:30:16.404Z,9.20
2018-07-13T11:32:44.537Z,6.67
2018-07-13T11:35:12.565Z,12.17
2018-07-13T11:37:40.167Z,7.93
2018-07-13T11:40:08.555Z,10.30
2018-07-13T11:42:36.158Z,8.20
2018-07-13T11:45:03.781Z,8.07
2018-07-13T11:47:31.445Z,7.40
2018-07-13T11:49:59.018Z,8.83
2018-07-13T11:52:26.565Z,9.73
2018-07-13T11:54:54.409Z,10.83
2018-07-13T11:57:22.170Z,17.23
2018-07-13T11:59:49.753Z,5.93
2018-07-13T12:02:17.306Z,6.93
2018-07-13T12:04:44.876Z,8.27
2018-07-13T12:07:12.581Z,7.13
2018-07-13T12:09:40.097Z,8.83
2018-07-13T12:12:07.677Z,6.47
2018-07-13T12:14:35.502Z,6.40
2018-07-13T12:17:03.381Z,6.07
2018-07-13T12:19:30.962Z,7.37
2018-07-13T12:21:58.542Z,9.47
2018-07-13T12:24:26.118Z,6.73
2018-07-13T12:26:53.735Z,6.23
2018-07-13T12:29:21.285Z,7.10
2018-07-13T12:31:48.953Z,7.10
2018-07-13T12:34:16.537Z,6.93
2018-07-13T12:36:44.081Z,4.80
2018-07-13T12:39:11.669Z,11.90
2018-07-13T12:41:39.238Z,7.20
2018-07-13T12:44:06.853Z,3.10
2018-07-13T12:46:34.451Z,6.23
2018-07-13T12:49:02.718Z,6.63
2018-07-13T12:51:30.324Z,8.77
2018-07-13T12:53:58.273Z,5.47
2018-07-13T12:56:25.982Z,7.60
2018-07-13T12:58:55.179Z,6.40
2018-07-13T13:01:22.880Z,3.70
2018-07-13T13:03:50.500Z,5.20
2018-07-13T13:06:18.346Z,4.00
2018-07-13T13:08:46.274Z,4.33
2018-07-13T13:11:13.914Z,5.50
2018-07-13T13:13:41.563Z,6.93
2018-07-13T13:16:09.153Z,6.47
2018-07-13T13:18:36.702Z,7.67
2018-07-13T13:21:04.281Z,5.57
2018-07-13T13:23:31.885Z,4.87
2018-07-13T13:25:59.493Z,7.47
2018-07-13T13:28:27.145Z,5.13
2018-07-13T13:30:54.741Z,5.63
2018-07-13T13:33:22.527Z,4.60
2018-07-13T13:35:50.853Z,3.83
2018-07-13T13:38:18.416Z,5.87
2018-07-13T13:40:46.093Z,3.33
2018-07-13T13:43:14.476Z,4.10
2018-07-13T13:45:42.268Z,3.57
2018-07-13T13:48:10.306Z,5.57
2018-07-13T13:50:38.294Z,4.40
2018-07-13T13:53:05.870Z,3.70
2018-07-13T13:55:33.469Z,6.87
2018-07-13T13:58:01.079Z,4.55
2018-07-13T14:00:28.673Z,5.47
2018-07-13T14:02:56.209Z,4.45
2018-07-13T14:05:23.945Z,4.10
2018-07-13T14:07:51.657Z,5.62
2018-07-13T14:10:19.836Z,3.65
2018-07-13T14:12:48.266Z,3.72
2018-07-13T14:15:15.876Z,3.87
2018-07-13T14:17:43.500Z,5.25
2018-07-13T14:20:11.217Z,2.98
2018-07-13T14:22:38.799Z,2.70
2018-07-13T14:25:13.315Z,3.83
2018-07-13T14:27:40.899Z,2.80
2018-07-13T14:30:08.733Z,6.15
2018-07-13T14:32:36.324Z,3.92
2018-07-13T14:35:03.986Z,4.70
2018-07-13T14:37:31.909Z,6.58
2018-07-13T14:40:01.207Z,2.80
2018-07-13T14:42:29.607Z,3.95
2018-07-13T14:44:57.262Z,3.25
2018-07-13T14:47:25.043Z,2.60
2018-07-13T14:49:52.745Z,2.35
2018-07-13T14:52:20.446Z,4.00
2018-07-13T14:54:48.014Z,4.20
2018-07-13T14:57:15.606Z,4.40
2018-07-13T14:59:43.219Z,2.30
2018-07-13T15:02:10.783Z,2.80
2018-07-13T15:04:38.338Z,2.75
2018-07-13T15:07:05.952Z,2.60
2018-07-13T15:09:33.601Z,5.60
2018-07-13T15:12:01.178Z,3.08
2018-07-13T15:14:28.854Z,2.30
2018-07-13T15:16:56.439Z,5.80
2018-07-13T15:19:24.146Z,3.85
2018-07-13T15:21:51.980Z,3.17
2018-07-13T15:24:19.574Z,3.52
2018-07-13T15:26:47.179Z,3.55
2018-07-13T15:29:15.069Z,2.22
2018-07-13T15:31:42.685Z,16.00
2018-07-13T15:34:10.269Z,3.10
2018-07-13T15:36:37.862Z,4.42
2018-07-13T15:39:06.770Z,3.12
2018-07-13T15:41:34.365Z,3.45
2018-07-13T15:44:01.974Z,3.25
2018-07-13T15:46:29.576Z,4.20
2018-07-13T15:48:57.300Z,3.25
2018-07-13T15:51:24.904Z,1.98
2018-07-13T15:53:52.680Z,3.62
2018-07-13T15:56:20.254Z,2.90
2018-07-13T15:58:47.866Z,2.55
2018-07-13T16:01:15.433Z,3.02
2018-07-13T16:03:43.117Z,3.92
2018-07-13T16:06:10.742Z,9.90
2018-07-13T16:08:38.477Z,35.20
2018-07-13T16:11:06.075Z,8.20
2018-07-13T16:13:33.821Z,5.35
2018-07-13T16:16:01.544Z,5.25
2018-07-13T16:18:29.131Z,3.50
2018-07-13T16:20:56.698Z,5.40
2018-07-13T16:23:24.289Z,4.08
2018-07-13T16:25:52.893Z,2.83
2018-07-13T16:28:21.021Z,3.08
2018-07-13T16:30:48.716Z,4.17
2018-07-13T16:33:16.285Z,3.98
2018-07-13T16:35:43.846Z,3.35
2018-07-13T16:38:11.456Z,4.00
2018-07-13T16:40:39.045Z,3.08
2018-07-13T16:43:06.646Z,5.92
2018-07-13T16:45:34.265Z,2.90
2018-07-13T16:48:01.834Z,2.92
2018-07-13T16:50:29.845Z,3.47
2018-07-13T16:52:57.730Z,3.77
2018-07-13T16:55:25.301Z,3.55
2018-07-13T16:57:52.894Z,3.22
2018-07-13T17:00:20.729Z,3.75
2018-07-13T17:02:48.310Z,2.65
2018-07-13T17:05:16.425Z,4.70
2018-07-13T17:07:44.049Z,6.05
2018-07-13T17:10:11.666Z,2.47
2018-07-13T17:12:39.237Z,3.20
2018-07-13T17:15:07.049Z,5.83
2018-07-13T17:17:34.666Z,5.83
2018-07-13T17:20:02.374Z,4.53
2018-07-13T17:22:30.002Z,3.58
2018-07-13T17:24:57.554Z,4.80
2018-07-13T17:27:25.146Z,5.35
2018-07-13T17:29:52.713Z,3.00
2018-07-13T17:32:20.264Z,5.65
2018-07-13T17:34:48.009Z,4.15
2018-07-13T17:37:16.562Z,5.45
2018-07-13T17:39:44.305Z,4.60
2018-07-13T17:42:11.861Z,4.20
2018-07-13T17:44:39.526Z,6.17
2018-07-13T17:47:07.153Z,4.00
2018-07-13T17:49:34.805Z,4.90
2018-07-13T17:52:02.370Z,4.33
2018-07-13T17:54:30.109Z,4.83
2018-07-13T17:56:57.714Z,5.73
2018-07-13T17:59:25.277Z,9.43
2018-07-13T18:01:53.349Z,6.63
2018-07-13T18:04:20.970Z,6.00
2018-07-13T18:06:48.541Z,4.73
2018-07-13T18:09:16.165Z,3.27
2018-07-13T18:11:43.786Z,7.47
2018-07-13T18:14:11.342Z,7.63
2018-07-13T18:16:38.893Z,6.50
2018-07-13T18:19:06.507Z,6.40
2018-07-13T18:21:34.111Z,6.27
2018-07-13T18:24:01.728Z,5.70
2018-07-13T18:26:36.276Z,4.13
2018-07-13T18:29:03.936Z,5.17
2018-07-13T18:31:31.497Z,5.50
2018-07-13T18:33:59.083Z,7.40
2018-07-13T18:36:26.694Z,8.57
2018-07-13T18:38:54.310Z,16.33
2018-07-13T18:41:21.898Z,9.53
2018-07-13T18:43:49.521Z,7.47
2018-07-13T18:46:17.141Z,5.40
2018-07-13T18:48:47.481Z,4.03
2018-07-13T18:51:15.161Z,2.97
2018-07-13T18:53:42.758Z,4.07
2018-07-13T18:56:10.703Z,6.10
2018-07-13T18:58:38.695Z,3.97
2018-07-13T19:01:06.337Z,4.03
2018-07-13T19:03:33.909Z,3.20
2018-07-13T19:06:07.393Z,4.17
2018-07-13T19:08:34.968Z,4.93
2018-07-13T19:11:04.021Z,5.20
2018-07-13T19:13:31.619Z,5.60
2018-07-13T19:15:59.189Z,5.37
2018-07-13T19:18:26.833Z,2.87
2018-07-13T19:20:54.489Z,5.80
2018-07-13T19:23:22.025Z,3.80
2018-07-13T19:25:49.806Z,4.07
2018-07-13T19:28:17.382Z,5.57
2018-07-13T19:30:44.993Z,4.63
2018-07-13T19:33:12.546Z,26.70
2018-07-13T19:35:40.172Z,13.77
2018-07-13T19:38:08.469Z,11.57
2018-07-13T19:40:36.074Z,4.27
2018-07-13T19:43:03.788Z,6.73
2018-07-13T19:45:31.381Z,8.80
2018-07-13T19:47:58.953Z,19.87
2018-07-13T19:50:27.081Z,20.60
2018-07-13T19:52:54.620Z,16.47
2018-07-13T19:55:22.272Z,7.47
2018-07-13T19:57:49.943Z,3.50
2018-07-13T20:00:17.610Z,7.23
2018-07-13T20:02:45.241Z,3.37
2018-07-13T20:05:12.845Z,18.77
2018-07-13T20:07:40.794Z,11.87
2018-07-13T20:10:08.646Z,9.87
2018-07-13T20:12:36.244Z,5.73
2018-07-13T20:15:03.841Z,11.90
2018-07-13T20:17:32.289Z,5.43
2018-07-13T20:19:59.942Z,4.50
2018-07-13T20:22:27.509Z,7.17
2018-07-13T20:24:58.014Z,3.80
2018-07-13T20:27:25.637Z,6.77
2018-07-13T20:29:53.246Z,6.23
2018-07-13T20:32:20.818Z,8.27
2018-07-13T20:34:48.480Z,5.13
2018-07-13T20:37:16.066Z,6.13
2018-07-13T20:39:43.625Z,7.27
2018-07-13T20:42:11.898Z,4.17
2018-07-13T20:44:39.421Z,6.60
2018-07-13T20:47:07.052Z,6.03
2018-07-13T20:49:34.673Z,4.67
2018-07-13T20:52:02.253Z,4.43
2018-07-13T20:54:29.853Z,5.40
2018-07-13T20:56:57.442Z,4.47
2018-07-13T20:59:25.092Z,6.03
2018-07-13T21:01:52.688Z,7.47
2018-07-13T21:04:20.246Z,6.30
2018-07-13T21:06:47.841Z,5.93
2018-07-13T21:09:15.393Z,5.47
2018-07-13T21:11:43.053Z,6.47
2018-07-13T21:14:10.622Z,3.87
2018-07-13T21:16:38.258Z,4.23
2018-07-13T21:19:05.829Z,4.27
2018-07-13T21:21:33.401Z,6.37
2018-07-13T21:24:01.026Z,7.60
2018-07-13T21:26:28.638Z,3.87
2018-07-13T21:28:56.226Z,4.70
2018-07-13T21:31:23.841Z,8.70
2018-07-13T21:33:51.438Z,7.00
2018-07-13T21:36:19.053Z,7.93
2018-07-13T21:38:46.697Z,7.47
2018-07-13T21:41:14.311Z,5.43
2018-07-13T21:43:41.941Z,7.20
2018-07-13T21:46:09.525Z,6.87
2018-07-13T21:48:37.080Z,6.10
2018-07-13T21:51:04.750Z,8.43
2018-07-13T21:53:32.373Z,9.10
2018-07-13T21:55:59.977Z,7.87
2018-07-13T21:58:27.661Z,7.97
2018-07-13T22:00:55.277Z,7.50
2018-07-13T22:03:22.907Z,6.67
2018-07-13T22:05:50.473Z,8.57
2018-07-13T22:08:18.055Z,6.17
2018-07-13T22:10:45.701Z,5.60
2018-07-13T22:13:13.359Z,8.17
2018-07-13T22:15:40.938Z,6.97
2018-07-13T22:18:08.722Z,7.17
2018-07-13T22:20:36.354Z,5.33
2018-07-13T22:23:04.009Z,7.67
2018-07-13T22:25:31.685Z,5.47
2018-07-13T22:27:59.386Z,11.30
2018-07-13T22:30:27.029Z,6.23
2018-07-13T22:32:54.601Z,11.97
2018-07-13T22:35:22.189Z,9.23
2018-07-13T22:37:50.238Z,7.17
2018-07-13T22:40:17.841Z,7.90
2018-07-13T22:42:45.449Z,9.23
2018-07-13T22:45:13.041Z,8.83
2018-07-13T22:47:40.667Z,8.57
2018-07-13T22:50:08.307Z,7.87
2018-07-13T22:52:35.913Z,12.57
2018-07-13T22:55:03.572Z,8.63
2018-07-13T22:57:31.254Z,6.17
2018-07-13T22:59:58.939Z,7.10
2018-07-13T23:02:26.449Z,8.10
2018-07-13T23:04:54.058Z,10.40
2018-07-13T23:07:24.082Z,6.10
2018-07-13T23:09:51.705Z,9.47
2018-07-13T23:12:19.305Z,10.73
2018-07-13T23:14:46.986Z,10.03
2018-07-13T23:17:14.594Z,11.33
2018-07-13T23:19:42.192Z,6.70
2018-07-13T23:22:09.813Z,7.03
2018-07-13T23:24:37.506Z,9.53
2018-07-13T23:27:05.181Z,8.03
2018-07-13T23:29:32.714Z,8.10
2018-07-13T23:32:00.325Z,11.20
2018-07-13T23:34:27.917Z,9.23
2018-07-13T23:36:55.514Z,8.87
2018-07-13T23:39:23.085Z,9.97
2018-07-13T23:41:50.718Z,8.03
2018-07-13T23:44:18.296Z,7.70
2018-07-13T23:46:45.897Z,6.97
2018-07-13T23:49:13.474Z,6.90
2018-07-13T23:51:49.025Z,7.17
2018-07-13T23:54:16.655Z,7.30
2018-07-13T23:56:44.273Z,8.03
2018-07-13T23:59:11.877Z,9.13
